createdAt,value
2016-12-15T00:01:56.533Z,97.776
2016-12-15T00:04:51.994Z,98.225
2016-12-15T00:07:46.224Z,98.284
2016-12-15T00:10:38.110Z,98.602
2016-12-15T00:13:31.876Z,98.311
2016-12-15T00:16:26.046Z,98.305
2016-12-15T00:19:19.728Z,98.200
2016-12-15T00:22:15.163Z,98.142
2016-12-15T00:25:09.230Z,98.540
2016-12-15T00:28:01.367Z,98.043
2016-12-15T00:30:56.188Z,98.543
2016-12-15T00:33:50.050Z,98.582
2016-12-15T00:36:44.618Z,98.528
2016-12-15T00:39:36.814Z,98.393
2016-12-15T00:42:32.102Z,98.042
2016-12-15T00:45:26.601Z,98.114
2016-12-15T00:48:19.028Z,97.892
2016-12-15T00:51:13.650Z,97.662
2016-12-15T00:54:06.527Z,97.838
2016-12-15T00:57:00.359Z,97.471
2016-12-15T00:59:54.278Z,97.737
2016-12-15T01:02:48.610Z,97.812
2016-12-15T01:05:42.391Z,97.860
2016-12-15T01:08:36.269Z,97.510
2016-12-15T01:11:30.159Z,97.391
2016-12-15T01:14:25.620Z,97.183
2016-12-15T01:17:17.686Z,97.373
2016-12-15T01:20:11.497Z,97.173
2016-12-15T01:23:05.241Z,97.094
2016-12-15T01:25:59.040Z,97.087
2016-12-15T01:28:52.948Z,97.234
2016-12-15T01:31:46.729Z,97.094
2016-12-15T01:34:42.367Z,96.962
2016-12-15T01:37:36.154Z,97.099
2016-12-15T01:40:30.117Z,96.803
2016-12-15T01:43:23.885Z,96.431
2016-12-15T01:46:17.896Z,95.653
2016-12-15T01:49:10.134Z,95.804
2016-12-15T01:52:04.014Z,95.405
2016-12-15T01:54:57.943Z,95.409
2016-12-15T01:57:53.610Z,95.082
2016-12-15T02:00:46.627Z,94.643
2016-12-15T02:03:39.542Z,95.118
2016-12-15T02:06:33.281Z,95.475
2016-12-15T02:12:21.015Z,95.340
2016-12-15T02:15:14.771Z,94.557
2016-12-15T02:18:08.606Z,94.897
2016-12-15T02:21:04.156Z,94.864
2016-12-15T02:23:58.044Z,95.407
2016-12-15T02:26:50.105Z,95.074
2016-12-15T02:29:43.963Z,94.653
2016-12-15T02:32:37.654Z,94.390
2016-12-15T02:35:33.224Z,94.580
2016-12-15T02:38:26.033Z,94.887
2016-12-15T02:41:20.046Z,95.057
2016-12-15T02:44:16.693Z,94.705
2016-12-15T02:47:09.553Z,93.948
2016-12-15T02:50:01.653Z,94.371
2016-12-15T02:52:55.419Z,94.798
2016-12-15T02:55:49.252Z,94.740
2016-12-15T02:58:44.822Z,94.757
2016-12-15T03:01:37.092Z,94.168
2016-12-15T03:04:32.651Z,93.297
2016-12-15T03:07:26.417Z,93.565
2016-12-15T03:10:20.276Z,93.257
2016-12-15T03:13:12.443Z,93.263
2016-12-15T03:16:07.270Z,93.318
2016-12-15T03:19:01.878Z,93.405
2016-12-15T03:21:54.723Z,93.447
2016-12-15T03:24:47.983Z,94.049
2016-12-15T03:27:41.807Z,93.981
2016-12-15T03:30:37.172Z,94.137
2016-12-15T03:33:32.807Z,94.291
2016-12-15T03:36:24.067Z,93.869
2016-12-15T03:39:17.825Z,93.668
2016-12-15T03:42:11.641Z,93.522
2016-12-15T03:45:07.283Z,93.631
2016-12-15T03:48:00.989Z,93.409
2016-12-15T03:50:54.876Z,93.053
2016-12-15T03:53:47.020Z,92.761
2016-12-15T03:56:41.814Z,93.154
2016-12-15T03:59:34.874Z,93.020
2016-12-15T04:02:29.141Z,93.265
2016-12-15T04:05:22.940Z,92.823
2016-12-15T04:08:18.467Z,92.778
2016-12-15T04:11:12.432Z,93.165
2016-12-15T04:14:05.197Z,93.400
2016-12-15T04:16:58.357Z,93.180
2016-12-15T04:19:53.109Z,93.289
2016-12-15T04:22:47.715Z,93.041
2016-12-15T04:25:40.772Z,92.437
2016-12-15T04:28:33.579Z,92.160
2016-12-15T04:31:27.410Z,91.855
2016-12-15T04:34:21.115Z,92.253
2016-12-15T04:37:16.755Z,92.297
2016-12-15T04:40:08.843Z,92.389
2016-12-15T04:43:02.592Z,91.946
2016-12-15T04:45:58.257Z,92.736
2016-12-15T04:48:50.352Z,92.389
2016-12-15T04:51:44.116Z,92.250
2016-12-15T04:54:37.957Z,92.126
2016-12-15T04:57:32.667Z,92.377
2016-12-15T05:00:25.627Z,92.190
2016-12-15T05:03:21.184Z,91.618
2016-12-15T05:06:13.331Z,91.753
2016-12-15T05:09:07.125Z,92.149
2016-12-15T05:12:01.849Z,92.616
2016-12-15T05:14:56.592Z,92.366
2016-12-15T05:17:48.622Z,92.404
2016-12-15T05:20:42.497Z,92.616
2016-12-15T05:23:38.037Z,92.397
2016-12-15T05:26:30.319Z,92.112
2016-12-15T05:29:24.179Z,92.250
2016-12-15T05:32:17.924Z,91.254
2016-12-15T05:35:13.464Z,91.738
2016-12-15T05:38:05.640Z,91.911
2016-12-15T05:41:01.344Z,92.378
2016-12-15T05:43:55.149Z,91.981
2016-12-15T05:46:47.265Z,92.594
2016-12-15T05:49:41.055Z,92.390
2016-12-15T05:52:36.700Z,92.590
2016-12-15T05:55:28.993Z,91.292
2016-12-15T05:58:24.533Z,91.367
2016-12-15T06:01:16.616Z,91.589
2016-12-15T06:04:10.414Z,91.512
2016-12-15T06:07:04.319Z,91.683
2016-12-15T06:09:59.970Z,92.207
2016-12-15T06:12:52.220Z,92.522
2016-12-15T06:15:45.960Z,92.838
2016-12-15T06:18:42.169Z,93.166
2016-12-15T06:21:34.945Z,93.392
2016-12-15T06:24:29.872Z,92.965
2016-12-15T06:27:21.998Z,93.387
2016-12-15T06:30:15.886Z,93.441
2016-12-15T06:33:11.433Z,93.435
2016-12-15T06:36:03.578Z,92.058
2016-12-15T06:38:57.343Z,90.191
2016-12-15T06:41:51.180Z,91.735
2016-12-15T06:44:46.667Z,92.201
2016-12-15T06:47:40.756Z,91.319
2016-12-15T06:50:32.815Z,90.750
2016-12-15T06:53:27.046Z,90.829
2016-12-15T06:56:21.784Z,91.119
2016-12-15T06:59:14.626Z,90.727
2016-12-15T07:02:08.576Z,91.333
2016-12-15T07:05:02.361Z,90.991
2016-12-15T07:07:56.197Z,89.602
2016-12-15T07:10:50.040Z,88.639
2016-12-15T07:13:45.618Z,89.045
2016-12-15T07:16:39.580Z,89.363
2016-12-15T07:19:33.520Z,89.427
2016-12-15T07:25:19.571Z,90.121
2016-12-15T07:28:13.274Z,89.262
2016-12-15T07:31:07.059Z,89.541
2016-12-15T07:34:01.209Z,89.369
2016-12-15T07:36:55.237Z,90.941
2016-12-15T07:39:50.119Z,88.429
2016-12-15T07:42:42.995Z,88.019
2016-12-15T07:45:36.959Z,86.131
2016-12-15T07:48:30.844Z,86.161
2016-12-15T07:51:26.552Z,85.494
2016-12-15T07:54:18.651Z,85.789
2016-12-15T07:57:12.398Z,87.222
2016-12-15T08:00:06.198Z,87.839
2016-12-15T08:03:01.741Z,86.482
2016-12-15T08:05:55.791Z,87.027
2016-12-15T08:08:47.907Z,86.981
2016-12-15T08:11:41.654Z,87.411
2016-12-15T08:14:35.529Z,86.521
2016-12-15T08:17:29.360Z,86.189
2016-12-15T08:20:23.232Z,85.920
2016-12-15T08:23:17.067Z,86.249
2016-12-15T08:26:12.491Z,86.756
2016-12-15T08:29:04.704Z,86.826
2016-12-15T08:31:59.326Z,86.498
2016-12-15T08:34:54.166Z,85.701
2016-12-15T08:37:47.994Z,86.716
2016-12-15T08:40:42.356Z,86.701
2016-12-15T08:43:36.295Z,86.331
2016-12-15T08:46:28.449Z,86.015
2016-12-15T08:49:23.996Z,85.242
2016-12-15T08:52:16.108Z,84.782
2016-12-15T08:55:11.725Z,84.872
2016-12-15T08:58:03.995Z,85.058
2016-12-15T09:00:57.919Z,84.893
2016-12-15T09:03:51.766Z,84.911
2016-12-15T09:06:45.737Z,85.854
2016-12-15T09:09:41.301Z,85.145
2016-12-15T09:12:33.599Z,85.227
2016-12-15T09:15:29.205Z,83.787
2016-12-15T09:18:21.319Z,83.396
2016-12-15T09:21:15.204Z,84.437
2016-12-15T09:24:09.126Z,83.194
2016-12-15T09:27:03.007Z,83.064
2016-12-15T09:29:58.429Z,84.332
2016-12-15T09:32:50.592Z,84.355
2016-12-15T09:35:44.357Z,85.063
2016-12-15T09:38:38.190Z,83.644
2016-12-15T09:41:32.108Z,83.296
2016-12-15T09:44:25.881Z,82.346
2016-12-15T09:47:21.495Z,82.277
2016-12-15T09:50:13.764Z,81.806
2016-12-15T09:53:07.647Z,84.469
2016-12-15T09:56:01.502Z,82.412
2016-12-15T09:58:55.501Z,84.125
2016-12-15T10:01:51.059Z,83.029
2016-12-15T10:04:43.218Z,82.545
2016-12-15T10:07:38.677Z,82.724
2016-12-15T10:10:30.994Z,82.287
2016-12-15T10:13:24.896Z,80.793
2016-12-15T10:16:18.664Z,79.876
2016-12-15T10:19:12.522Z,80.179
2016-12-15T10:22:08.263Z,81.521
2016-12-15T10:25:00.368Z,81.532
2016-12-15T10:27:55.864Z,79.942
2016-12-15T10:30:49.674Z,81.460
2016-12-15T10:33:41.849Z,80.001
2016-12-15T10:36:35.648Z,80.938
2016-12-15T10:39:31.137Z,80.215
2016-12-15T10:42:23.290Z,79.556
2016-12-15T10:45:17.062Z,80.822
2016-12-15T10:48:11.023Z,79.110
2016-12-15T10:51:04.957Z,80.211
2016-12-15T10:54:00.538Z,79.000
2016-12-15T10:56:55.162Z,81.976
2016-12-15T10:59:47.111Z,79.527
2016-12-15T11:02:41.043Z,79.817
2016-12-15T11:05:34.851Z,78.736
2016-12-15T11:08:30.513Z,78.730
2016-12-15T11:11:22.580Z,79.874
2016-12-15T11:14:16.780Z,80.022
2016-12-15T11:17:10.769Z,82.285
2016-12-15T11:20:06.343Z,78.660
2016-12-15T11:22:58.621Z,80.132
2016-12-15T11:25:52.390Z,79.530
2016-12-15T11:28:46.814Z,79.646
2016-12-15T11:31:41.201Z,78.528
2016-12-15T11:34:36.665Z,79.349
2016-12-15T11:37:30.600Z,79.163
2016-12-15T11:40:24.547Z,79.473
2016-12-15T11:43:17.557Z,82.657
2016-12-15T11:46:12.227Z,80.242
2016-12-15T11:49:04.318Z,78.954
2016-12-15T11:51:58.160Z,79.610
2016-12-15T11:54:52.136Z,80.862
2016-12-15T11:57:46.056Z,80.317
2016-12-15T12:00:39.878Z,80.349
2016-12-15T12:03:34.438Z,80.324
2016-12-15T12:06:27.550Z,79.083
2016-12-15T12:09:23.054Z,81.272
2016-12-15T12:12:15.233Z,78.662
2016-12-15T12:15:10.832Z,78.565
2016-12-15T12:18:02.931Z,81.634
2016-12-15T12:20:56.817Z,79.950
2016-12-15T12:23:50.609Z,78.608
2016-12-15T12:26:46.244Z,78.493
2016-12-15T12:29:38.331Z,78.993
2016-12-15T12:32:33.971Z,80.095
2016-12-15T12:35:26.024Z,80.637
2016-12-15T12:38:21.552Z,78.651
2016-12-15T12:41:13.747Z,78.867
2016-12-15T12:44:08.389Z,80.136
2016-12-15T12:47:01.659Z,81.216
2016-12-15T12:49:55.625Z,81.513
2016-12-15T12:52:49.644Z,79.143
2016-12-15T12:55:46.270Z,80.255
2016-12-15T12:58:37.505Z,80.065
2016-12-15T13:01:31.821Z,80.594
2016-12-15T13:04:26.532Z,79.032
2016-12-15T13:07:19.737Z,79.260
2016-12-15T13:10:14.447Z,77.463
2016-12-15T13:13:07.442Z,77.566
2016-12-15T13:16:02.079Z,78.716
2016-12-15T13:18:55.302Z,78.803
2016-12-15T13:21:49.117Z,79.136
2016-12-15T13:24:42.924Z,78.546
2016-12-15T13:27:36.731Z,79.761
2016-12-15T13:30:32.233Z,79.459
2016-12-15T13:33:24.582Z,78.891
2016-12-15T13:36:18.111Z,79.575
2016-12-15T13:39:14.745Z,79.032
2016-12-15T13:42:07.716Z,79.606
2016-12-15T13:44:59.808Z,79.603
2016-12-15T13:47:53.806Z,80.042
2016-12-15T13:50:47.544Z,79.375
2016-12-15T13:53:43.549Z,81.231
2016-12-15T13:56:36.034Z,82.226
2016-12-15T13:59:29.891Z,80.248
2016-12-15T14:02:23.958Z,79.770
2016-12-15T14:05:19.436Z,80.644
2016-12-15T14:08:13.358Z,80.482
2016-12-15T14:11:05.576Z,80.494
2016-12-15T14:13:59.350Z,80.723
2016-12-15T14:16:53.454Z,80.918
2016-12-15T14:19:49.013Z,81.108
2016-12-15T14:22:41.632Z,81.143
2016-12-15T14:25:35.428Z,79.948
2016-12-15T14:28:29.283Z,81.328
2016-12-15T14:31:23.088Z,81.288
2016-12-15T14:34:18.503Z,81.058
2016-12-15T14:37:12.358Z,80.610
2016-12-15T14:40:06.247Z,80.950
2016-12-15T14:42:59.522Z,82.253
2016-12-15T14:45:52.739Z,81.094
2016-12-15T14:48:46.608Z,81.630
2016-12-15T14:51:40.307Z,83.004
2016-12-15T14:54:35.113Z,80.751
2016-12-15T14:57:29.645Z,80.788
2016-12-15T15:03:15.996Z,80.804
2016-12-15T15:06:12.591Z,81.336
2016-12-15T15:09:34.040Z,82.195
2016-12-15T15:12:23.182Z,79.504
2016-12-15T15:15:17.004Z,81.260
2016-12-15T15:18:10.827Z,80.835
2016-12-15T15:21:06.360Z,80.625
2016-12-15T15:23:58.730Z,81.044
2016-12-15T15:26:52.671Z,82.221
2016-12-15T15:29:46.632Z,81.616
2016-12-15T15:32:42.248Z,81.270
2016-12-15T15:35:34.447Z,81.751
2016-12-15T15:38:28.363Z,82.142
2016-12-15T15:41:22.242Z,82.232
2016-12-15T15:44:16.064Z,82.102
2016-12-15T15:47:11.706Z,81.840
2016-12-15T15:50:05.544Z,81.846
2016-12-15T15:52:57.733Z,81.957
2016-12-15T15:55:52.544Z,82.211
2016-12-15T15:58:45.468Z,81.955
2016-12-15T16:01:41.101Z,83.295
2016-12-15T16:04:35.034Z,83.051
2016-12-15T16:07:27.249Z,82.812
2016-12-15T16:10:22.977Z,83.012
2016-12-15T16:13:15.130Z,82.055
2016-12-15T16:16:10.738Z,82.315
2016-12-15T16:19:02.822Z,81.416
2016-12-15T16:21:56.657Z,82.194
2016-12-15T16:24:50.818Z,81.545
2016-12-15T16:27:46.409Z,81.667
2016-12-15T16:30:38.577Z,82.003
2016-12-15T16:33:32.422Z,81.655
2016-12-15T16:36:26.250Z,81.416
2016-12-15T16:39:20.008Z,82.526
2016-12-15T16:42:13.890Z,81.624
2016-12-15T16:45:07.646Z,81.779
2016-12-15T16:48:01.524Z,82.131
2016-12-15T16:50:57.086Z,81.900
2016-12-15T16:53:51.346Z,81.699
2016-12-15T16:56:44.048Z,81.466
2016-12-15T16:59:37.914Z,82.152
2016-12-15T17:02:33.554Z,81.633
2016-12-15T17:05:25.642Z,81.208
2016-12-15T17:08:19.567Z,81.757
2016-12-15T17:11:13.543Z,81.789
2016-12-15T17:14:07.419Z,81.754
2016-12-15T17:17:01.442Z,82.197
2016-12-15T17:19:55.333Z,81.639
2016-12-15T17:22:49.185Z,81.730
2016-12-15T17:25:43.098Z,82.053
2016-12-15T17:28:37.049Z,81.056
2016-12-15T17:31:30.936Z,81.063
2016-12-15T17:34:24.798Z,81.362
2016-12-15T17:37:20.388Z,82.891
2016-12-15T17:40:12.615Z,81.666
2016-12-15T17:43:06.437Z,81.489
2016-12-15T17:46:00.362Z,81.368
2016-12-15T17:48:54.182Z,81.450
2016-12-15T17:51:48.027Z,81.548
2016-12-15T17:54:41.813Z,80.995
2016-12-15T17:57:37.417Z,81.330
2016-12-15T18:00:32.431Z,80.742
2016-12-15T18:03:25.443Z,81.139
2016-12-15T18:06:19.313Z,80.939
2016-12-15T18:09:13.224Z,81.383
2016-12-15T18:12:05.304Z,81.276
2016-12-15T18:15:00.866Z,81.758
2016-12-15T18:17:52.990Z,81.472
2016-12-15T18:20:46.877Z,81.746
2016-12-15T18:23:40.622Z,81.654
2016-12-15T18:26:36.220Z,81.837
2016-12-15T18:29:28.427Z,81.795
2016-12-15T18:32:22.260Z,82.020
2016-12-15T18:35:16.110Z,82.344
2016-12-15T18:38:11.536Z,82.059
2016-12-15T18:41:03.777Z,82.518
2016-12-15T18:43:57.703Z,82.206
2016-12-15T18:46:51.480Z,82.618
2016-12-15T18:49:47.131Z,82.364
2016-12-15T18:52:40.949Z,82.449
2016-12-15T18:55:33.048Z,82.750
2016-12-15T18:58:26.873Z,82.669
2016-12-15T19:01:20.728Z,82.687
2016-12-15T19:04:16.301Z,82.618
2016-12-15T19:07:08.479Z,83.040
2016-12-15T19:10:04.274Z,83.279
2016-12-15T19:12:56.456Z,83.286
2016-12-15T19:15:52.046Z,83.497
2016-12-15T19:18:44.208Z,83.671
2016-12-15T19:21:39.772Z,83.972
2016-12-15T19:24:31.872Z,83.761
2016-12-15T19:27:25.678Z,83.713
2016-12-15T19:30:19.557Z,83.767
2016-12-15T19:33:13.626Z,83.554
2016-12-15T19:36:07.407Z,83.566
2016-12-15T19:39:01.274Z,83.512
2016-12-15T19:41:55.147Z,83.714
2016-12-15T19:44:48.888Z,84.190
2016-12-15T19:47:42.559Z,84.071
2016-12-15T19:50:36.304Z,83.897
2016-12-15T19:53:30.052Z,83.816
2016-12-15T19:56:23.715Z,83.272
2016-12-15T19:59:17.489Z,82.929
2016-12-15T20:02:11.368Z,82.617
2016-12-15T20:05:06.810Z,82.804
2016-12-15T20:07:59.052Z,82.661
2016-12-15T20:10:52.782Z,82.756
2016-12-15T20:13:46.554Z,82.872
2016-12-15T20:16:42.126Z,82.502
2016-12-15T20:19:34.086Z,82.788
2016-12-15T20:22:27.801Z,82.670
2016-12-15T20:25:21.622Z,82.820
2016-12-15T20:28:15.409Z,82.295
2016-12-15T20:31:09.171Z,82.320
2016-12-15T20:34:02.838Z,82.561
2016-12-15T20:36:56.444Z,82.586
2016-12-15T20:39:50.228Z,82.782
2016-12-15T20:42:43.976Z,82.684
2016-12-15T20:45:37.780Z,82.830
2016-12-15T20:48:31.911Z,82.895
2016-12-15T20:51:27.415Z,82.915
2016-12-15T20:54:19.379Z,82.617
2016-12-15T20:57:13.182Z,83.530
2016-12-15T21:00:08.309Z,83.077
2016-12-15T21:03:00.150Z,82.722
2016-12-15T21:05:55.732Z,82.856
2016-12-15T21:08:47.678Z,82.875
2016-12-15T21:11:43.049Z,82.865
2016-12-15T21:14:35.240Z,82.758
2016-12-15T21:17:28.990Z,82.915
2016-12-15T21:20:22.900Z,82.831
2016-12-15T21:23:16.563Z,82.373
2016-12-15T21:26:10.818Z,83.094
2016-12-15T21:29:04.658Z,82.248
2016-12-15T21:31:58.404Z,82.445
2016-12-15T21:34:52.100Z,81.937
2016-12-15T21:37:47.572Z,81.921
2016-12-15T21:40:41.527Z,82.005
2016-12-15T21:43:33.522Z,82.383
2016-12-15T21:46:30.106Z,82.392
2016-12-15T21:49:21.655Z,82.074
2016-12-15T21:52:15.544Z,82.200
2016-12-15T21:55:09.473Z,82.556
2016-12-15T21:58:03.263Z,82.227
2016-12-15T22:00:57.108Z,82.355
2016-12-15T22:03:50.900Z,81.931
2016-12-15T22:06:45.327Z,82.021
2016-12-15T22:09:40.771Z,81.964
2016-12-15T22:12:32.692Z,82.081
2016-12-15T22:15:28.109Z,81.950
2016-12-15T22:18:20.240Z,82.001
2016-12-15T22:21:15.594Z,82.436
2016-12-15T22:24:09.243Z,82.534
2016-12-15T22:27:01.441Z,82.863
2016-12-15T22:29:55.171Z,83.083
2016-12-15T22:32:50.619Z,83.394
2016-12-15T22:35:42.744Z,83.562
2016-12-15T22:38:36.501Z,83.833
2016-12-15T22:41:32.066Z,84.032
2016-12-15T22:44:24.718Z,84.240
2016-12-15T22:47:18.429Z,84.777
2016-12-15T22:50:12.112Z,84.310
2016-12-15T22:53:05.991Z,84.427
2016-12-15T22:56:01.588Z,84.556
2016-12-15T22:58:53.488Z,84.757
2016-12-15T23:01:49.059Z,85.067
2016-12-15T23:04:41.333Z,84.646
2016-12-15T23:07:35.131Z,84.638
2016-12-15T23:10:28.875Z,84.753
2016-12-15T23:13:24.258Z,84.724
2016-12-15T23:16:16.395Z,84.932
2016-12-15T23:19:10.066Z,84.657
2016-12-15T23:22:03.863Z,84.716
2016-12-15T23:24:59.347Z,84.520
2016-12-15T23:27:51.382Z,84.482
2016-12-15T23:30:45.064Z,84.530
2016-12-15T23:33:38.767Z,84.379
2016-12-15T23:36:32.523Z,84.243
2016-12-15T23:39:26.285Z,83.947
2016-12-15T23:42:20.038Z,84.046
2016-12-15T23:45:13.738Z,83.756
2016-12-15T23:48:07.467Z,83.699
2016-12-15T23:51:01.192Z,83.409
2016-12-15T23:53:56.533Z,83.208
2016-12-15T23:56:48.525Z,83.263
2016-12-15T23:59:42.194Z,83.376
